Time;durP1;ratioP1;P1;durP2;ratioP2;P2;SDS_P1;SDS_P2;PMS_P1;PMS_P2;Temp;Humidity;BMP_temperature;BMP_pressure;BME280_temperature;BME280_humidity;BME280_pressure;Samples;Min_cycle;Max_cycle;Signal;HPM_P1;HPM_P2
2022/08/31 00:04:04;;;;;;;6.25;4.57;;;;;;;16.98;100.00;100075.25;5074128;28;20031;-84
2022/08/31 00:06:31;;;;;;;7.13;3.95;;;;;;;16.91;100.00;100064.28;5074648;28;20029;-82
2022/08/31 00:08:56;;;;;;;7.47;3.42;;;;;;;16.92;100.00;100073.00;5073029;28;20496;-84
2022/08/31 00:11:28;;;;;;;6.47;3.63;;;;;;;16.87;100.00;100062.78;5072894;28;20024;-82
2022/08/31 00:13:56;;;;;;;7.97;4.35;;;;;;;16.81;100.00;100060.56;5073531;28;20027;-83
2022/08/31 00:16:22;;;;;;;7.30;3.83;;;;;;;16.75;100.00;100053.06;5077032;28;20051;-84
2022/08/31 00:18:51;;;;;;;7.82;3.90;;;;;;;16.77;100.00;100061.72;5088509;28;20048;-84
2022/08/31 00:21:18;;;;;;;12.90;3.35;;;;;;;16.80;100.00;100060.66;5088505;28;20385;-84
2022/08/31 00:23:44;;;;;;;8.57;4.20;;;;;;;16.79;100.00;100070.34;5089801;28;20442;-91
2022/08/31 00:26:09;;;;;;;5.68;4.30;;;;;;;16.79;100.00;100067.72;5088778;28;20032;-92
2022/08/31 00:28:34;;;;;;;4.30;3.90;;;;;;;16.70;100.00;100053.34;5106752;28;20054;-86
2022/08/31 00:31:00;;;;;;;6.05;4.55;;;;;;;16.76;100.00;100062.63;5091211;28;20077;-86
2022/08/31 00:33:25;;;;;;;7.07;4.88;;;;;;;16.75;100.00;100070.63;5089286;28;20055;-87
2022/08/31 00:35:51;;;;;;;6.45;4.60;;;;;;;16.72;100.00;100063.75;5090181;28;20025;-87
2022/08/31 00:38:16;;;;;;;7.65;4.18;;;;;;;16.74;100.00;100061.06;5101106;28;20106;-85
2022/08/31 00:40:45;;;;;;;6.40;4.07;;;;;;;16.67;100.00;100056.16;5093537;28;20453;-84
2022/08/31 00:43:11;;;;;;;6.65;4.30;;;;;;;16.73;100.00;100062.00;5094513;28;20028;-83
2022/08/31 00:45:36;;;;;;;6.53;4.28;;;;;;;16.73;100.00;100059.34;5094083;28;20457;-85
2022/08/31 00:48:02;;;;;;;6.55;4.90;;;;;;;16.65;100.00;100044.06;5093788;28;20081;-83
2022/08/31 00:50:27;;;;;;;5.90;4.50;;;;;;;16.67;100.00;100056.16;5093806;28;20480;-83
2022/08/31 00:52:56;;;;;;;4.55;3.55;;;;;;;16.64;100.00;100055.50;5092373;28;20016;-83
2022/08/31 00:55:28;;;;;;;6.90;4.10;;;;;;;16.67;100.00;100060.59;5092610;28;20388;-84
2022/08/31 00:57:58;;;;;;;6.90;3.78;;;;;;;16.61;100.00;100056.56;5093621;28;20023;-85
2022/08/31 01:00:26;;;;;;;7.88;3.97;;;;;;;16.63;100.00;100059.94;5092653;28;20119;-84
2022/08/31 01:02:52;;;;;;;6.00;3.95;;;;;;;16.57;100.00;100060.34;5093940;28;20024;-84
2022/08/31 01:05:18;;;;;;;8.32;3.90;;;;;;;16.60;100.00;100064.53;5093564;28;20086;-85
2022/08/31 01:07:49;;;;;;;5.65;3.65;;;;;;;16.57;100.00;100062.97;5092403;28;20445;-85
2022/08/31 01:10:18;;;;;;;6.35;4.15;;;;;;;16.59;100.00;100062.88;5093580;28;20035;-84
2022/08/31 01:12:46;;;;;;;6.07;4.20;;;;;;;16.57;100.00;100062.13;5092385;28;20028;-84
2022/08/31 01:15:14;;;;;;;5.50;4.03;;;;;;;16.51;100.00;100052.00;5093385;28;20540;-84
2022/08/31 01:17:41;;;;;;;7.05;4.00;;;;;;;16.55;100.00;100056.97;5092094;28;20024;-84
2022/08/31 01:20:07;;;;;;;4.10;3.75;;;;;;;16.54;100.00;100052.66;5092808;28;20495;-84
2022/08/31 01:22:44;;;;;;;7.32;4.65;;;;;;;16.52;100.00;100053.69;5092744;28;20020;-88
2022/08/31 01:25:10;;;;;;;5.22;4.47;;;;;;;16.43;100.00;100041.97;5092681;28;20036;-87
2022/08/31 01:27:36;;;;;;;8.02;5.35;;;;;;;16.50;100.00;100063.47;5091864;28;20020;-87
2022/08/31 01:30:05;;;;;;;5.85;4.80;;;;;;;16.46;100.00;100063.66;5091482;28;20031;-87
2022/08/31 01:32:31;;;;;;;5.05;4.55;;;;;;;16.44;100.00;100057.66;5091360;28;20032;-87
2022/08/31 01:34:56;;;;;;;5.78;5.10;;;;;;;16.40;100.00;100052.72;5093202;28;20104;-87
2022/08/31 01:37:22;;;;;;;6.20;4.78;;;;;;;16.37;100.00;100055.53;5091558;28;20039;-87
2022/08/31 01:39:49;;;;;;;5.78;5.03;;;;;;;16.32;100.00;100053.19;5093243;28;20032;-87
2022/08/31 01:42:18;;;;;;;6.95;4.57;;;;;;;16.32;100.00;100060.25;5091370;28;20020;-86
2022/08/31 01:44:43;;;;;;;8.23;5.53;;;;;;;16.29;100.00;100058.63;5091457;28;20034;-85
2022/08/31 01:47:09;;;;;;;6.97;5.10;;;;;;;16.26;100.00;100055.34;5092723;28;20103;-86
2022/08/31 01:49:35;;;;;;;7.10;5.63;;;;;;;16.27;100.00;100070.22;5091826;28;20552;-87
2022/08/31 01:52:00;;;;;;;10.55;5.53;;;;;;;16.21;100.00;100053.88;5092962;28;20027;-86
2022/08/31 01:54:26;;;;;;;6.65;5.60;;;;;;;16.21;100.00;100060.91;5091775;28;20034;-86
2022/08/31 01:56:52;;;;;;;8.68;5.05;;;;;;;16.19;100.00;100061.00;5091497;28;20055;-87
2022/08/31 01:59:20;;;;;;;6.65;5.45;;;;;;;16.18;100.00;100063.72;5092525;28;20082;-86
2022/08/31 02:01:49;;;;;;;7.70;5.93;;;;;;;16.12;100.00;100062.34;5092604;28;20028;-87
2022/08/31 02:04:15;;;;;;;16.27;6.22;;;;;;;16.08;100.00;100060.00;5092625;28;20028;-87
2022/08/31 02:06:43;;;;;;;9.27;6.07;;;;;;;15.96;100.00;100049.31;5091383;28;20036;-86
2022/08/31 02:09:10;;;;;;;6.10;5.45;;;;;;;15.94;100.00;100059.09;5091053;28;20028;-86
2022/08/31 02:11:36;;;;;;;6.20;5.60;;;;;;;15.87;100.00;100063.03;5091067;28;20362;-86
2022/08/31 02:14:01;;;;;;;8.95;6.47;;;;;;;15.90;100.00;100075.13;5090763;28;20028;-86
2022/08/31 02:16:27;;;;;;;5.90;5.35;;;;;;;15.87;100.00;100075.31;5090937;28;20127;-85
2022/08/31 02:18:52;;;;;;;7.78;5.53;;;;;;;15.84;100.00;100070.25;5092637;28;20040;-84
2022/08/31 02:21:18;;;;;;;11.02;5.85;;;;;;;15.76;100.00;100068.13;5092287;28;20035;-85
2022/08/31 02:23:43;;;;;;;8.98;6.00;;;;;;;15.74;100.00;100062.09;5092612;28;20055;-85
2022/08/31 02:26:09;;;;;;;10.55;6.18;;;;;;;15.67;100.00;100052.91;5090774;28;20020;-85
2022/08/31 02:28:35;;;;;;;6.85;5.95;;;;;;;15.65;100.00;100052.16;5092509;28;20035;-85
2022/08/31 02:31:00;;;;;;;7.70;5.90;;;;;;;15.64;100.00;100053.94;5091959;28;20132;-85
2022/08/31 02:33:26;;;;;;;6.88;5.88;;;;;;;15.69;100.00;100065.00;5092445;28;20044;-85
2022/08/31 02:35:52;;;;;;;9.07;5.82;;;;;;;15.68;100.00;100060.69;5092261;28;20028;-85
2022/08/31 02:38:17;;;;;;;6.35;5.03;;;;;;;15.62;100.00;100050.53;5090591;28;20020;-85
2022/08/31 02:40:43;;;;;;;8.88;6.32;;;;;;;15.66;100.00;100070.44;5090870;28;20031;-85
2022/08/31 02:43:10;;;;;;;6.03;5.15;;;;;;;15.69;100.00;100067.63;5091858;28;20048;-85
2022/08/31 02:45:36;;;;;;;8.38;6.07;;;;;;;15.62;100.00;100057.56;5092516;28;20028;-85
2022/08/31 02:48:06;;;;;;;8.23;5.50;;;;;;;15.65;100.00;100066.13;5090713;28;20435;-85
2022/08/31 02:50:32;;;;;;;6.53;5.38;;;;;;;15.68;100.00;100067.72;5090845;28;20024;-85
2022/08/31 02:52:58;;;;;;;5.53;5.03;;;;;;;15.65;100.00;100057.41;5090746;28;20028;-85
2022/08/31 02:55:25;;;;;;;5.30;4.80;;;;;;;15.57;100.00;100042.09;5090449;28;20123;-86
2022/08/31 02:57:52;;;;;;;9.60;5.35;;;;;;;15.67;100.00;100061.63;5093274;28;20020;-86
2022/08/31 03:00:20;;;;;;;15.00;5.65;;;;;;;15.61;100.00;100050.63;5094854;28;20103;-87
2022/08/31 03:02:47;;;;;;;6.30;5.68;;;;;;;15.56;100.00;100048.28;5094969;28;20029;-86
2022/08/31 03:05:13;;;;;;;7.90;4.72;;;;;;;15.60;100.00;100059.44;5096121;28;20105;-86
2022/08/31 03:07:39;;;;;;;12.25;5.82;;;;;;;15.56;100.00;100052.69;5096184;28;20035;-87
2022/08/31 03:10:07;;;;;;;6.68;4.93;;;;;;;15.55;100.00;100056.22;5094566;28;20050;-86
2022/08/31 03:12:34;;;;;;;7.13;5.22;;;;;;;15.53;100.00;100052.88;5094452;28;20024;-86
2022/08/31 03:14:59;;;;;;;6.72;6.07;;;;;;;15.55;100.00;100064.09;5096123;28;20039;-85
2022/08/31 03:17:24;;;;;;;8.02;5.53;;;;;;;15.53;100.00;100063.38;5094300;28;20392;-86
2022/08/31 03:19:50;;;;;;;6.15;5.47;;;;;;;15.53;100.00;100060.75;5094660;28;20115;-86
2022/08/31 03:22:15;;;;;;;9.23;5.10;;;;;;;15.53;100.00;100071.25;5094300;28;20048;-86
2022/08/31 03:24:42;;;;;;;6.85;5.03;;;;;;;15.47;100.00;100065.44;5094351;28;20055;-86
2022/08/31 03:27:08;;;;;;;6.78;5.65;;;;;;;15.53;100.00;100076.50;5095432;28;20028;-85
2022/08/31 03:29:33;;;;;;;6.03;5.43;;;;;;;15.46;100.00;100071.63;5094522;28;20297;-86
2022/08/31 03:32:00;;;;;;;7.15;5.25;;;;;;;15.47;100.00;100068.06;5094284;28;20488;-85
2022/08/31 03:34:25;;;;;;;8.23;5.68;;;;;;;15.48;100.00;100076.78;5095250;28;20526;-86
2022/08/31 03:36:51;;;;;;;8.15;5.68;;;;;;;15.46;100.00;100068.13;5095763;28;20045;-86
2022/08/31 03:39:16;;;;;;;8.77;6.07;;;;;;;15.42;100.00;100069.25;5095325;28;20536;-86
2022/08/31 03:41:41;;;;;;;7.63;5.35;;;;;;;15.44;100.00;100070.88;5093881;28;20362;-86
2022/08/31 03:44:07;;;;;;;8.02;5.57;;;;;;;15.41;100.00;100078.06;5094132;28;20058;-87
2022/08/31 03:46:33;;;;;;;7.28;6.35;;;;;;;15.41;100.00;100075.44;5094210;28;20062;-86
2022/08/31 03:49:00;;;;;;;6.40;5.72;;;;;;;15.36;100.00;100064.38;5095422;28;20028;-87
2022/08/31 03:51:26;;;;;;;11.73;6.25;;;;;;;15.38;100.00;100067.75;5052267;28;20033;-87
2022/08/31 03:53:51;;;;;;;7.80;5.60;;;;;;;15.40;100.00;100079.84;5032161;28;20037;-86
2022/08/31 03:56:17;;;;;;;7.90;6.20;;;;;;;15.37;100.00;100072.16;5032021;28;20029;-87
2022/08/31 03:58:43;;;;;;;8.50;6.25;;;;;;;15.22;100.00;100057.34;5015774;28;20542;-87
2022/08/31 04:01:12;;;;;;;7.93;5.90;;;;;;;15.32;100.00;100070.75;5015497;28;20044;-87
2022/08/31 04:03:37;;;;;;;8.95;6.18;;;;;;;15.39;100.00;100087.84;5032303;28;20042;-87
2022/08/31 04:06:07;;;;;;;9.23;6.50;;;;;;;15.34;100.00;100072.38;5032371;28;20042;-87
2022/08/31 04:08:32;;;;;;;7.10;6.40;;;;;;;15.35;100.00;100079.28;4991386;28;20484;-87
2022/08/31 04:10:58;;;;;;;7.63;6.10;;;;;;;15.32;100.00;100076.00;4976376;28;20089;-88
2022/08/31 04:13:23;;;;;;;8.35;7.25;;;;;;;15.25;100.00;100065.00;4992336;28;20034;-87
2022/08/31 04:15:49;;;;;;;8.73;6.90;;;;;;;15.32;100.00;100076.00;4992551;28;20038;-86
2022/08/31 04:18:14;;;;;;;7.28;6.57;;;;;;;15.34;100.00;100082.84;4992494;28;20045;-86
2022/08/31 04:20:39;;;;;;;8.23;6.90;;;;;;;15.31;100.00;100069.91;4992553;28;20053;-86
2022/08/31 04:23:05;;;;;;;7.72;6.22;;;;;;;15.33;100.00;100083.78;5007648;28;20113;-86
2022/08/31 04:25:31;;;;;;;8.25;6.47;;;;;;;15.33;100.00;100072.44;5012007;28;20069;-86
2022/08/31 04:27:57;;;;;;;9.30;6.97;;;;;;;15.32;100.00;100073.38;5011926;28;20034;-86
2022/08/31 04:30:23;;;;;;;10.35;6.32;;;;;;;15.30;100.00;100060.34;5032867;28;20052;-86
2022/08/31 04:32:49;;;;;;;8.10;6.38;;;;;;;15.26;100.00;100055.38;5031449;28;20038;-86
2022/08/31 04:35:15;;;;;;;10.27;5.95;;;;;;;15.44;100.00;100083.16;5031523;28;20150;-87
2022/08/31 04:37:40;;;;;;;9.82;6.38;;;;;;;15.43;100.00;100071.81;5031586;28;20062;-87
2022/08/31 04:40:18;;;;;;;10.48;6.60;;;;;;;15.53;100.00;100085.22;5043891;28;20445;-86
2022/08/31 04:42:45;;;;;;;13.18;6.53;;;;;;;15.57;100.00;100091.13;5054727;28;20076;-86
2022/08/31 04:45:12;;;;;;;9.25;6.50;;;;;;;15.59;100.00;100092.75;5054425;28;20111;-86
2022/08/31 04:47:37;;;;;;;8.73;6.68;;;;;;;15.57;100.00;100091.97;5054535;28;20103;-86
2022/08/31 04:50:05;;;;;;;11.70;6.28;;;;;;;15.52;100.00;100075.66;5054671;28;20446;-85
2022/08/31 04:52:31;;;;;;;8.27;5.88;;;;;;;15.56;100.00;100069.28;5070950;28;20033;-84
2022/08/31 04:54:56;;;;;;;9.68;6.30;;;;;;;15.60;100.00;100080.44;5071255;28;20473;-85
2022/08/31 04:57:21;;;;;;;8.75;6.53;;;;;;;15.66;100.00;100083.56;5054009;28;20049;-85
2022/08/31 04:59:47;;;;;;;7.65;6.40;;;;;;;15.68;100.00;100079.06;5071261;28;20055;-85
2022/08/31 05:02:12;;;;;;;8.98;5.88;;;;;;;15.65;100.00;100079.25;5070966;28;20051;-87
2022/08/31 05:04:37;;;;;;;6.30;5.63;;;;;;;15.69;100.00;100077.28;5090144;28;20101;-86
2022/08/31 05:07:03;;;;;;;10.07;6.80;;;;;;;15.76;100.00;100086.50;5092325;28;20024;-87
2022/08/31 05:09:28;;;;;;;8.75;6.28;;;;;;;15.69;100.00;100075.50;5093636;28;20534;-87
2022/08/31 05:11:54;;;;;;;9.35;6.68;;;;;;;15.75;100.00;100082.16;5093640;28;20027;-86
2022/08/31 05:14:21;;;;;;;6.93;5.75;;;;;;;15.79;100.00;100094.16;5093378;28;20032;-87
2022/08/31 05:16:47;;;;;;;8.02;5.93;;;;;;;15.84;100.00;100102.59;5092230;28;20028;-87
2022/08/31 05:19:12;;;;;;;9.27;6.35;;;;;;;15.89;100.00;100113.69;5092945;28;20390;-87
2022/08/31 05:21:40;;;;;;;7.70;6.15;;;;;;;15.91;100.00;100118.84;5091717;28;20059;-86
2022/08/31 05:24:21;;;;;;;10.23;5.97;;;;;;;15.92;100.00;100115.28;5093206;28;20070;-86
2022/08/31 05:26:50;;;;;;;10.82;5.40;;;;;;;15.85;100.00;100100.84;5091986;28;20023;-86
2022/08/31 05:29:18;;;;;;;7.88;6.43;;;;;;;15.91;100.00;100105.72;5091664;28;20024;-83
2022/08/31 05:31:44;;;;;;;10.38;6.28;;;;;;;15.93;100.00;100109.09;5093122;28;20054;-83
2022/08/31 05:34:11;;;;;;;7.82;5.85;;;;;;;16.00;100.00;100126.16;5092444;28;20044;-84
2022/08/31 05:36:37;;;;;;;8.10;6.53;;;;;;;16.03;100.00;100125.13;5091745;28;20525;-83
2022/08/31 05:39:03;;;;;;;9.07;5.88;;;;;;;16.07;100.00;100129.25;5091520;28;20031;-83
2022/08/31 05:41:30;;;;;;;7.35;5.65;;;;;;;16.11;100.00;100139.50;5091839;28;20016;-83
2022/08/31 05:43:55;;;;;;;7.15;5.70;;;;;;;16.19;100.00;100136.38;5092976;28;20039;-83
2022/08/31 05:46:21;;;;;;;6.90;6.03;;;;;;;16.29;100.00;100147.16;5091400;28;20020;-83
2022/08/31 05:48:46;;;;;;;7.63;5.72;;;;;;;16.27;100.00;100143.81;5091464;28;20031;-83
2022/08/31 05:51:14;;;;;;;9.88;6.63;;;;;;;16.24;100.00;100141.34;5093139;28;20053;-83
2022/08/31 05:53:40;;;;;;;10.02;5.88;;;;;;;16.24;100.00;100138.72;5092974;28;20032;-83
2022/08/31 05:56:13;;;;;;;6.32;5.40;;;;;;;16.23;100.00;100153.66;5091565;28;20024;-83
2022/08/31 05:58:41;;;;;;;8.05;5.95;;;;;;;16.22;100.00;100146.69;5091375;28;20484;-83
2022/08/31 06:01:22;;;;;;;9.32;5.35;;;;;;;16.25;100.00;100143.88;5092646;28;20484;-83
2022/08/31 06:03:48;;;;;;;6.57;5.07;;;;;;;16.19;100.00;100144.28;5092775;28;20035;-83
2022/08/31 06:06:14;;;;;;;8.52;5.93;;;;;;;16.30;100.00;100156.72;5094024;28;20057;-83
2022/08/31 06:08:40;;;;;;;14.20;5.35;;;;;;;16.35;100.00;100159.91;5092962;28;20116;-83
2022/08/31 06:11:17;;;;;;;8.52;5.18;;;;;;;16.36;100.00;100165.09;5092001;28;20028;-83
2022/08/31 06:13:43;;;;;;;8.98;5.70;;;;;;;16.41;100.00;100163.00;5094723;28;20060;-83
2022/08/31 06:16:08;;;;;;;7.75;5.10;;;;;;;16.34;100.00;100158.22;5093233;28;20057;-83
2022/08/31 06:18:37;;;;;;;6.43;4.40;;;;;;;16.50;100.00;100173.91;5092718;28;20040;-83
2022/08/31 06:21:07;;;;;;;6.90;5.07;;;;;;;16.56;100.00;100179.63;5091495;28;20119;-83
2022/08/31 06:23:33;;;;;;;;;;;;;;;16.71;100.00;100183.91;5092064;28;20103;-83
2022/08/31 06:26:11;;;;;;;11.60;4.85;;;;;;;16.77;100.00;100177.47;5092708;28;19951;-82
2022/08/31 06:28:38;;;;;;;9.27;4.60;;;;;;;16.84;100.00;100183.16;5092787;28;20103;-83
2022/08/31 06:31:10;;;;;;;6.88;4.60;;;;;;;16.76;100.00;100174.91;5091462;28;20081;-83
2022/08/31 06:33:37;;;;;;;6.03;4.38;;;;;;;16.67;100.00;100178.94;5092001;28;20048;-83
2022/08/31 06:36:02;;;;;;;4.85;4.22;;;;;;;16.60;100.00;100188.16;5092913;28;20020;-83
2022/08/31 06:38:27;;;;;;;7.90;4.45;;;;;;;16.49;100.00;100191.47;5091041;28;20435;-83
2022/08/31 06:40:53;;;;;;;6.35;4.60;;;;;;;16.45;100.00;100196.06;5092910;28;20105;-83
2022/08/31 06:43:18;;;;;;;9.35;4.95;;;;;;;16.40;100.00;100203.41;5092531;28;20484;-82
2022/08/31 06:45:44;;;;;;;5.63;4.20;;;;;;;16.32;100.00;100183.78;5095125;28;20380;-83
2022/08/31 06:48:09;;;;;;;8.30;4.45;;;;;;;16.36;100.00;100195.81;5093000;28;20032;-82
2022/08/31 06:50:37;;;;;;;5.68;4.50;;;;;;;16.28;100.00;100184.91;5095254;28;20032;-82
2022/08/31 06:53:03;;;;;;;7.25;4.63;;;;;;;16.13;100.00;100161.25;5095683;28;20024;-82
2022/08/31 06:55:28;;;;;;;8.60;4.85;;;;;;;16.26;100.00;100187.63;5095023;28;20645;-81
2022/08/31 06:57:54;;;;;;;7.55;4.30;;;;;;;16.40;100.00;100203.41;5093154;28;20039;-82
2022/08/31 07:00:19;;;;;;;5.93;4.63;;;;;;;16.44;100.00;100204.91;5092829;28;20024;-83
2022/08/31 07:02:44;;;;;;;5.50;4.05;;;;;;;16.37;100.00;100203.59;5092156;28;20030;-83
2022/08/31 07:05:10;;;;;;;9.63;4.88;;;;;;;16.42;100.00;100200.66;5093929;28;20020;-81
2022/08/31 07:07:35;;;;;;;7.50;4.43;;;;;;;16.45;100.00;100211.00;5091189;28;20028;-82
2022/08/31 07:10:01;;;;;;;8.30;4.10;;;;;;;16.51;100.00;100215.88;5090922;28;20065;-82
2022/08/31 07:12:26;;;;;;;8.27;3.60;;;;;;;16.55;100.00;100206.00;5091188;28;20396;-82
2022/08/31 07:14:51;;;;;;;5.78;3.65;;;;;;;16.58;100.00;100197.94;5093039;28;20020;-82
2022/08/31 07:17:17;;;;;;;4.90;3.50;;;;;;;16.67;100.00;100199.97;5095185;28;20388;-82
2022/08/31 07:19:42;;;;;;;6.68;3.70;;;;;;;16.74;100.00;100198.69;5093513;28;20516;-82
2022/08/31 07:22:08;;;;;;;6.40;3.72;;;;;;;16.84;100.00;100201.56;5093278;28;20020;-82
2022/08/31 07:24:34;;;;;;;7.30;3.33;;;;;;;16.86;100.00;100203.16;5091054;28;20548;-82
2022/08/31 07:27:11;;;;;;;5.45;3.35;;;;;;;16.99;100.00;100208.50;5094453;28;20028;-81
2022/08/31 07:29:40;;;;;;;7.78;3.25;;;;;;;17.14;100.00;100218.00;5098032;28;20590;-82
2022/08/31 07:32:08;;;;;;;7.15;3.70;;;;;;;17.13;100.00;100195.28;5099251;28;20058;-82
2022/08/31 07:34:35;;;;;;;4.10;3.15;;;;;;;17.17;100.00;100195.94;5099721;28;20052;-82
2022/08/31 07:42:34;;;;;;;5.53;3.42;;;;;;;17.31;100.00;100201.13;5105702;28;20063;-83
2022/08/31 07:45:04;;;;;;;3.80;3.05;;;;;;;17.43;100.00;100202.09;5110397;28;20048;-83
2022/08/31 07:47:31;;;;;;;5.35;3.75;;;;;;;17.40;100.00;100212.81;5108307;28;20024;-83
2022/08/31 07:49:59;;;;;;;6.07;3.30;;;;;;;17.42;100.00;100224.97;5101917;28;20601;-83
2022/08/31 07:52:30;;;;;;;6.72;3.00;;;;;;;17.32;100.00;100217.75;5096476;28;20494;-83
2022/08/31 07:55:06;;;;;;;4.40;2.92;;;;;;;17.40;100.00;100218.97;5095187;28;20024;-83
2022/08/31 07:57:37;;;;;;;5.50;3.28;;;;;;;17.45;100.00;100208.97;5094597;28;20052;-83
2022/08/31 08:00:07;;;;;;;6.38;3.13;;;;;;;17.44;100.00;100209.06;5095395;28;20471;-83
2022/08/31 08:02:38;;;;;;;;;;;;;;;17.46;100.00;100220.34;5099165;28;20185;-82
2022/08/31 08:05:10;;;;;;;4.05;2.70;;;;;;;17.44;100.00;100228.34;5100950;28;19912;-82
2022/08/31 08:07:37;;;;;;;6.72;3.20;;;;;;;17.40;100.00;100226.00;5101968;28;20032;-83
2022/08/31 08:10:05;;;;;;;5.82;3.13;;;;;;;17.28;100.00;100227.66;5102032;28;20088;-82
2022/08/31 08:12:35;;;;;;;7.75;3.45;;;;;;;17.19;100.00;100229.13;5099693;28;20111;-83
2022/08/31 08:15:01;;;;;;;4.03;2.63;;;;;;;17.28;100.00;100230.31;5098927;28;20110;-83
2022/08/31 08:17:26;;;;;;;5.28;2.38;;;;;;;17.33;100.00;100230.00;5100424;28;20472;-83
2022/08/31 08:19:55;;;;;;;5.60;2.35;;;;;;;17.20;100.00;100225.53;5102269;28;20045;-82
2022/08/31 08:22:21;;;;;;;7.55;3.47;;;;;;;17.22;100.00;100225.41;5101871;28;20158;-82
2022/08/31 08:24:46;;;;;;;4.50;2.92;;;;;;;17.31;100.00;100231.88;5100160;28;20070;-81
2022/08/31 08:27:13;;;;;;;6.10;3.17;;;;;;;17.34;100.00;100236.94;5098307;28;20044;-83
2022/08/31 08:29:39;;;;;;;5.80;2.75;;;;;;;17.31;100.00;100232.72;5094773;28;20504;-83
2022/08/31 08:32:07;;;;;;;6.70;3.00;;;;;;;17.37;100.00;100229.69;5094730;28;20081;-83
2022/08/31 08:34:33;;;;;;;4.05;2.30;;;;;;;17.52;100.00;100219.94;5095796;28;20048;-83
2022/08/31 08:36:59;;;;;;;4.88;2.40;;;;;;;17.69;100.00;100237.25;5094593;28;20428;-82
2022/08/31 08:39:24;;;;;;;6.13;2.72;;;;;;;17.93;100.00;100238.25;5096322;28;20112;-85
2022/08/31 08:41:54;;;;;;;3.65;2.40;;;;;;;18.13;99.24;100247.47;5094775;28;20024;-82
2022/08/31 08:44:22;;;;;;;4.65;2.30;;;;;;;18.16;97.31;100249.03;5095751;28;20028;-81
2022/08/31 08:46:54;;;;;;;5.53;2.33;;;;;;;18.22;96.82;100237.22;5095612;28;20024;-83
2022/08/31 08:49:38;;;;;;;3.38;2.10;;;;;;;18.50;96.46;100237.00;5097793;28;20043;-83
2022/08/31 08:52:10;;;;;;;4.63;2.65;;;;;;;18.61;95.30;100237.06;5097523;28;20107;-83
2022/08/31 08:54:39;;;;;;;6.03;2.88;;;;;;;18.71;95.17;100247.88;5096132;28;20028;-83
2022/08/31 08:57:23;;;;;;;3.42;2.20;;;;;;;18.76;94.30;100244.91;5095445;28;20028;-84
2022/08/31 08:59:49;;;;;;;4.68;2.40;;;;;;;18.80;94.07;100239.28;5097664;28;20020;-82
2022/08/31 09:02:47;;;;;;;8.73;2.90;;;;;;;19.01;93.52;100250.09;5096027;28;20028;-82
2022/08/31 09:05:50;;;;;;;3.13;2.08;;;;;;;19.17;93.18;100241.91;5035069;28;20121;-82
2022/08/31 09:08:16;;;;;;;6.07;4.65;;;;;;;19.37;92.32;100245.72;5051340;28;20025;-83
2022/08/31 09:10:54;;;;;;;5.07;2.90;;;;;;;19.35;90.71;100240.56;5032587;28;20073;-82
2022/08/31 09:13:35;;;;;;;6.28;2.90;;;;;;;19.42;90.54;100240.94;5033152;28;20537;-82
2022/08/31 09:16:13;;;;;;;8.85;3.28;;;;;;;19.63;88.78;100238.53;5033330;28;20586;-83
2022/08/31 09:19:05;;;;;;;6.18;2.90;;;;;;;19.74;88.68;100233.28;5032308;28;20037;-80
2022/08/31 09:21:35;;;;;;;5.53;2.40;;;;;;;19.92;87.92;100241.63;5033157;28;20120;-84
2022/08/31 09:24:08;;;;;;;5.45;2.08;;;;;;;20.01;87.50;100240.91;5033116;28;20037;-84
2022/08/31 09:26:59;;;;;;;5.25;2.10;;;;;;;19.77;86.57;100237.53;5032831;28;20144;-83
2022/08/31 09:29:27;;;;;;;10.77;2.15;;;;;;;19.80;86.22;100230.16;5015398;28;20052;-84
2022/08/31 09:32:14;;;;;;;3.30;1.90;;;;;;;19.88;86.75;100233.06;5017030;28;20030;-83
2022/08/31 09:34:42;;;;;;;4.50;2.25;;;;;;;19.82;85.39;100233.56;5051475;28;20041;-84
2022/08/31 09:37:19;;;;;;;6.03;2.63;;;;;;;19.65;85.11;100226.91;5034629;28;20038;-83
2022/08/31 09:39:47;;;;;;;4.65;2.17;;;;;;;19.57;85.78;100233.69;5032867;28;20061;-83
2022/08/31 09:42:27;;;;;;;2.78;2.10;;;;;;;19.72;86.29;100227.28;5072609;28;20048;-84
2022/08/31 09:44:54;;;;;;;4.43;2.05;;;;;;;19.85;85.86;100222.75;5097954;28;20453;-85
2022/08/31 09:47:47;;;;;;;4.68;2.30;;;;;;;20.05;85.27;100226.50;5096321;28;20051;-84
2022/08/31 09:50:30;;;;;;;4.40;2.03;;;;;;;20.02;84.59;100224.13;5094728;28;20020;-81
2022/08/31 09:56:12;;;;;;;3.53;2.00;;;;;;;20.61;84.04;100231.03;5094838;28;20057;-82
2022/08/31 09:58:47;;;;;;;3.22;2.30;;;;;;;20.67;81.72;100230.53;5094419;28;20036;-81
2022/08/31 10:01:18;;;;;;;2.85;2.00;;;;;;;20.77;81.40;100222.69;5094727;28;20484;-81
2022/08/31 10:03:46;;;;;;;3.95;2.33;;;;;;;20.87;80.29;100219.19;5094314;28;20024;-81
2022/08/31 10:06:33;;;;;;;3.75;2.00;;;;;;;21.02;80.92;100217.09;5093553;28;20089;-83
2022/08/31 10:09:07;;;;;;;3.58;2.13;;;;;;;21.15;81.55;100220.44;5093229;28;20032;-83
2022/08/31 10:11:34;;;;;;;4.45;1.60;;;;;;;20.84;79.42;100222.06;5094604;28;20026;-82
2022/08/31 10:14:03;;;;;;;4.07;2.20;;;;;;;20.74;81.52;100228.25;5093254;28;20028;-82
2022/08/31 10:16:41;;;;;;;5.38;2.65;;;;;;;20.44;83.64;100219.94;5092021;28;20020;-82
2022/08/31 10:19:12;;;;;;;3.30;2.30;;;;;;;20.28;84.15;100213.31;5093022;28;20027;-83
2022/08/31 10:21:47;;;;;;;5.57;2.40;;;;;;;20.23;84.88;100220.78;5092475;28;20027;-82
2022/08/31 10:24:31;;;;;;;7.80;2.60;;;;;;;20.22;85.31;100221.72;5091336;28;20031;-82
2022/08/31 10:27:09;;;;;;;4.85;2.40;;;;;;;20.09;84.98;100211.25;5093709;28;20024;-80
2022/08/31 10:29:53;;;;;;;6.55;2.40;;;;;;;20.05;85.33;100209.78;5093335;28;20036;-82
2022/08/31 10:32:28;;;;;;;7.65;2.85;;;;;;;20.06;85.23;100219.44;5091859;28;20028;-83
2022/08/31 10:35:10;;;;;;;5.00;2.58;;;;;;;20.09;85.22;100212.09;5092901;28;20031;-83
2022/08/31 10:37:55;;;;;;;5.18;2.60;;;;;;;19.99;84.22;100194.41;5092789;28;20028;-83
2022/08/31 10:40:30;;;;;;;3.50;2.20;;;;;;;20.06;84.26;100204.41;5091740;28;20112;-81
2022/08/31 10:43:21;;;;;;;5.20;2.72;;;;;;;20.06;83.00;100212.34;5093814;28;20084;-82
2022/08/31 10:45:49;;;;;;;;;;;;;;;20.01;82.87;100203.06;5093173;28;20133;-81
2022/08/31 10:48:17;;;;;;;6.97;2.35;;;;;;;19.94;81.83;100200.06;5093107;28;19998;-81
2022/08/31 10:51:10;;;;;;;8.52;2.90;;;;;;;19.97;82.61;100191.88;5093213;28;20514;-81
2022/08/31 10:53:51;;;;;;;5.25;2.38;;;;;;;19.95;81.10;100183.22;5093045;28;20052;-81
2022/08/31 10:56:35;;;;;;;3.63;2.22;;;;;;;20.00;80.72;100196.94;5091149;28;20043;-80
2022/08/31 10:59:05;;;;;;;3.70;2.28;;;;;;;19.99;81.04;100197.06;5092894;28;20021;-80
2022/08/31 11:01:43;;;;;;;4.13;2.10;;;;;;;20.00;80.49;100198.75;5094485;28;20032;-80
2022/08/31 11:04:35;;;;;;;4.95;2.42;;;;;;;20.01;80.58;100198.59;5092350;28;20378;-81
2022/08/31 11:07:16;;;;;;;3.22;1.90;;;;;;;20.10;80.19;100189.13;5094740;28;20020;-82
2022/08/31 11:10:24;;;;;;;3.60;2.00;;;;;;;20.18;78.83;100192.88;5092958;28;20594;-81
2022/08/31 11:12:56;;;;;;;2.45;2.10;;;;;;;20.16;76.87;100178.09;5030768;28;20039;-81
2022/08/31 11:15:28;;;;;;;4.43;2.00;;;;;;;20.32;77.04;100189.16;5031542;28;20030;-81
2022/08/31 11:18:07;;;;;;;3.17;1.77;;;;;;;20.29;72.98;100172.66;5031550;28;20041;-83
2022/08/31 11:20:51;;;;;;;2.72;2.15;;;;;;;20.43;72.88;100185.63;5018156;28;20045;-84
2022/08/31 11:23:35;;;;;;;1.90;1.52;;;;;;;20.63;73.63;100187.56;5016887;28;20044;-84
2022/08/31 11:26:33;;;;;;;6.57;1.90;;;;;;;20.71;72.38;100184.31;5018677;28;20045;-81
2022/08/31 11:29:27;;;;;;;2.83;2.03;;;;;;;20.74;71.18;100175.31;5018051;28;20036;-82
2022/08/31 11:31:57;;;;;;;4.95;2.10;;;;;;;20.71;70.50;100176.38;5033881;28;20386;-83
2022/08/31 11:34:44;;;;;;;1.83;1.67;;;;;;;20.80;69.29;100177.44;5035858;28;20058;-81
2022/08/31 11:37:10;;;;;;;4.88;1.90;;;;;;;20.83;69.37;100175.38;5002980;28;20320;-80
2022/08/31 11:39:39;;;;;;;16.70;11.50;;;;;;;20.74;70.20;100170.84;5033438;28;20535;-79
2022/08/31 11:42:52;;;;;;;5.53;3.90;;;;;;;20.90;71.41;100165.16;5034766;28;20060;-80